createdAt,value
2019-04-26T00:00:44.204Z,1006.24
2019-04-26T00:01:44.357Z,1006.19
2019-04-26T00:02:44.355Z,1006.19
2019-04-26T00:03:44.393Z,1006.19
2019-04-26T00:04:44.455Z,1006.18
2019-04-26T00:05:44.521Z,1006.14
2019-04-26T00:06:44.598Z,1006.13
2019-04-26T00:07:44.653Z,1006.08
2019-04-26T00:08:44.712Z,1006.03
2019-04-26T00:09:44.772Z,1006.01
2019-04-26T00:10:44.839Z,1006.00
2019-04-26T00:11:44.908Z,1006.04
2019-04-26T00:12:44.968Z,1006.09
2019-04-26T00:13:45.031Z,1006.10
2019-04-26T00:14:45.091Z,1006.09
2019-04-26T00:15:45.153Z,1006.14
2019-04-26T00:16:45.213Z,1006.12
2019-04-26T00:17:45.289Z,1006.19
2019-04-26T00:18:45.341Z,1006.19
2019-04-26T00:19:45.405Z,1006.24
2019-04-26T00:20:45.476Z,1006.35
2019-04-26T00:21:45.534Z,1006.35
2019-04-26T00:22:45.601Z,1006.30
2019-04-26T00:23:45.665Z,1006.30
2019-04-26T00:24:45.720Z,1006.27
2019-04-26T00:25:45.784Z,1006.28
2019-04-26T00:26:45.846Z,1006.33
2019-04-26T00:27:45.918Z,1006.39
2019-04-26T00:28:45.981Z,1006.46
2019-04-26T00:29:46.037Z,1006.53
2019-04-26T00:30:46.102Z,1006.54
2019-04-26T00:31:46.163Z,1006.56
2019-04-26T00:32:46.242Z,1006.57
2019-04-26T00:33:46.286Z,1006.54
2019-04-26T00:34:46.349Z,1006.52
2019-04-26T00:35:47.701Z,1006.48
2019-04-26T00:36:46.477Z,1006.48
2019-04-26T00:37:46.549Z,1006.47
2019-04-26T00:38:46.612Z,1006.53
2019-04-26T00:39:46.671Z,1006.49
2019-04-26T00:40:46.730Z,1006.52
2019-04-26T00:41:46.795Z,1006.63
2019-04-26T00:42:46.873Z,1006.65
2019-04-26T00:43:46.935Z,1006.61
2019-04-26T00:44:46.986Z,1006.58
2019-04-26T00:45:47.053Z,1006.56
2019-04-26T00:46:47.113Z,1006.53
2019-04-26T00:47:47.205Z,1006.51
2019-04-26T00:48:47.235Z,1006.45
2019-04-26T00:49:47.300Z,1006.40
2019-04-26T00:50:47.363Z,1006.34
2019-04-26T00:51:47.427Z,1006.36
2019-04-26T00:52:47.567Z,1006.38
2019-04-26T00:53:47.559Z,1006.48
2019-04-26T00:54:47.615Z,1006.52
2019-04-26T00:55:47.680Z,1006.53
2019-04-26T00:56:47.744Z,1006.58
2019-04-26T00:57:47.810Z,1006.65
2019-04-26T00:58:47.874Z,1006.64
2019-04-26T00:59:47.931Z,1006.64
2019-04-26T01:00:47.995Z,1006.66
2019-04-26T01:01:48.060Z,1006.66
2019-04-26T01:02:48.255Z,1006.69
2019-04-26T01:03:48.186Z,1006.72
2019-04-26T01:04:48.254Z,1006.75
2019-04-26T01:05:59.608Z,1006.78
2019-04-26T01:06:48.373Z,1006.81
2019-04-26T01:07:48.445Z,1006.77
2019-04-26T01:08:51.119Z,1006.75
2019-04-26T01:09:48.570Z,1006.78
2019-04-26T01:10:48.628Z,1006.77
2019-04-26T01:11:48.688Z,1006.76
2019-04-26T01:12:48.768Z,1006.78
2019-04-26T01:13:48.823Z,1006.82
2019-04-26T01:14:48.879Z,1006.86
2019-04-26T01:15:48.941Z,1006.91
2019-04-26T01:16:49.024Z,1006.99
2019-04-26T01:17:49.184Z,1007.00
2019-04-26T01:18:49.132Z,1007.03
2019-04-26T01:19:49.196Z,1007.07
2019-04-26T01:20:49.256Z,1007.08
2019-04-26T01:21:49.320Z,1007.14
2019-04-26T01:22:49.393Z,1007.15
2019-04-26T01:23:49.453Z,1007.16
2019-04-26T01:24:49.511Z,1007.18
2019-04-26T01:25:49.575Z,1007.16
2019-04-26T01:26:49.636Z,1007.10
2019-04-26T01:27:49.708Z,1007.11
2019-04-26T01:28:49.769Z,1007.15
2019-04-26T01:29:49.825Z,1007.10
2019-04-26T01:30:49.890Z,1007.11
2019-04-26T01:31:49.953Z,1007.07
2019-04-26T01:32:50.025Z,1007.03
2019-04-26T01:33:50.088Z,1007.03
2019-04-26T01:34:50.141Z,1007.04
2019-04-26T01:35:50.206Z,1007.08
2019-04-26T01:36:50.268Z,1007.07
2019-04-26T01:37:50.348Z,1007.11
2019-04-26T01:38:50.397Z,1007.15
2019-04-26T01:39:50.457Z,1007.17
2019-04-26T01:40:50.524Z,1007.20
2019-04-26T01:41:50.586Z,1007.18
2019-04-26T01:42:50.662Z,1007.17
2019-04-26T01:43:50.718Z,1007.18
2019-04-26T01:44:50.774Z,1007.18
2019-04-26T01:45:50.838Z,1007.19
2019-04-26T01:46:50.906Z,1007.21
2019-04-26T01:47:50.969Z,1007.23
2019-04-26T01:48:51.037Z,1007.26
2019-04-26T01:49:51.092Z,1007.22
2019-04-26T01:50:51.153Z,1007.18
2019-04-26T01:51:51.220Z,1007.15
2019-04-26T01:52:51.281Z,1007.17
2019-04-26T01:53:51.459Z,1007.11
2019-04-26T01:54:51.405Z,1007.10
2019-04-26T01:55:51.470Z,1007.08
2019-04-26T01:56:51.529Z,1007.09
2019-04-26T01:57:51.593Z,1007.10
2019-04-26T01:58:51.666Z,1007.17
2019-04-26T01:59:51.725Z,1007.20
2019-04-26T02:00:51.781Z,1007.29
2019-04-26T02:01:51.849Z,1007.35
2019-04-26T02:02:51.914Z,1007.37
2019-04-26T02:03:51.982Z,1007.40
2019-04-26T02:04:52.052Z,1007.42
2019-04-26T02:05:52.098Z,1007.40
2019-04-26T02:06:52.162Z,1007.38
2019-04-26T02:07:52.226Z,1007.33
2019-04-26T02:08:52.311Z,1007.33
2019-04-26T02:09:52.350Z,1007.33
2019-04-26T02:10:52.416Z,1007.25
2019-04-26T02:11:52.479Z,1007.20
2019-04-26T02:12:52.544Z,1007.09
2019-04-26T02:13:52.612Z,1007.01
2019-04-26T02:14:52.674Z,1006.94
2019-04-26T02:15:52.732Z,1006.83
2019-04-26T02:16:52.791Z,1006.84
2019-04-26T02:17:52.856Z,1006.80
2019-04-26T02:18:52.929Z,1006.87
2019-04-26T02:19:52.992Z,1006.99
2019-04-26T02:20:53.052Z,1007.10
2019-04-26T02:21:53.111Z,1007.18
2019-04-26T02:22:53.176Z,1007.20
2019-04-26T02:23:53.258Z,1007.22
2019-04-26T02:24:53.296Z,1007.23
2019-04-26T02:25:53.367Z,1007.27
2019-04-26T02:26:53.423Z,1007.28
2019-04-26T02:27:53.488Z,1007.25
2019-04-26T02:28:53.556Z,1007.24
2019-04-26T02:29:53.632Z,1007.18
2019-04-26T02:30:53.681Z,1007.21
2019-04-26T02:31:53.749Z,1007.27
2019-04-26T02:32:53.809Z,1007.28
2019-04-26T02:33:53.876Z,1007.32
2019-04-26T02:34:53.937Z,1007.32
2019-04-26T02:35:53.993Z,1007.35
2019-04-26T02:36:58.489Z,1007.41
2019-04-26T02:37:54.117Z,1007.45
2019-04-26T02:38:54.273Z,1007.47
2019-04-26T02:39:54.244Z,1007.46
2019-04-26T02:40:54.305Z,1007.49
2019-04-26T02:41:54.378Z,1007.50
2019-04-26T02:42:54.429Z,1007.47
2019-04-26T02:43:54.500Z,1007.48
2019-04-26T02:44:54.574Z,1007.48
2019-04-26T02:45:54.631Z,1007.49
2019-04-26T02:46:54.686Z,1007.50
2019-04-26T02:47:54.746Z,1007.46
2019-04-26T02:48:54.817Z,1007.48
2019-04-26T02:49:54.876Z,1007.48
2019-04-26T02:50:54.939Z,1007.46
2019-04-26T02:51:55.001Z,1007.45
2019-04-26T02:52:55.062Z,1007.48
2019-04-26T02:53:55.347Z,1007.47
2019-04-26T02:54:55.188Z,1007.47
2019-04-26T02:55:55.250Z,1007.51
2019-04-26T02:56:55.323Z,1007.53
2019-04-26T02:57:55.373Z,1007.52
2019-04-26T02:58:55.445Z,1007.58
2019-04-26T02:59:55.512Z,1007.59
2019-04-26T03:00:55.564Z,1007.67
2019-04-26T03:01:55.625Z,1007.65
2019-04-26T03:02:55.694Z,1007.63
2019-04-26T03:03:55.764Z,1007.61
2019-04-26T03:04:55.824Z,1007.61
2019-04-26T03:05:55.881Z,1007.58
2019-04-26T03:07:03.436Z,1007.53
2019-04-26T03:07:56.007Z,1007.51
2019-04-26T03:08:56.157Z,1007.53
2019-04-26T03:09:56.134Z,1007.52
2019-04-26T03:10:56.193Z,1007.52
2019-04-26T03:11:56.257Z,1007.57
2019-04-26T03:12:56.319Z,1007.61
2019-04-26T03:13:56.389Z,1007.66
2019-04-26T03:15:12.744Z,1007.65
2019-04-26T03:15:56.511Z,1007.67
2019-04-26T03:16:56.571Z,1007.69
2019-04-26T03:17:56.634Z,1007.71
2019-04-26T03:18:56.706Z,1007.70
2019-04-26T03:19:56.767Z,1007.69
2019-04-26T03:20:56.831Z,1007.67
2019-04-26T03:21:56.882Z,1007.61
2019-04-26T03:22:56.952Z,1007.57
2019-04-26T03:23:59.389Z,1007.50
2019-04-26T03:24:57.084Z,1007.50
2019-04-26T03:25:57.137Z,1007.41
2019-04-26T03:26:57.200Z,1007.33
2019-04-26T03:27:57.263Z,1007.29
2019-04-26T03:28:57.335Z,1007.28
2019-04-26T03:30:17.599Z,1007.32
2019-04-26T03:30:57.459Z,1007.32
2019-04-26T03:31:57.516Z,1007.33
2019-04-26T03:32:57.631Z,1007.35
2019-04-26T03:33:57.714Z,1007.43
2019-04-26T03:34:57.761Z,1007.47
2019-04-26T03:35:58.575Z,1007.56
2019-04-26T03:36:57.826Z,1007.59
2019-04-26T03:37:57.894Z,1007.66
2019-04-26T03:38:57.960Z,1007.71
2019-04-26T03:39:58.036Z,1007.75
2019-04-26T03:40:58.082Z,1007.81
2019-04-26T03:41:58.140Z,1007.76
2019-04-26T03:42:58.203Z,1007.78
2019-04-26T03:43:58.355Z,1007.73
2019-04-26T03:44:58.328Z,1007.74
2019-04-26T03:45:58.396Z,1007.74
2019-04-26T03:46:58.456Z,1007.78
2019-04-26T03:47:58.523Z,1007.75
2019-04-26T03:48:58.602Z,1007.75
2019-04-26T03:49:58.652Z,1007.67
2019-04-26T03:50:58.705Z,1007.68
2019-04-26T03:51:58.769Z,1007.63
2019-04-26T03:52:58.834Z,1007.67
2019-04-26T03:53:58.901Z,1007.66
2019-04-26T03:54:58.964Z,1007.65
2019-04-26T03:55:59.020Z,1007.70
2019-04-26T03:56:59.086Z,1007.69
2019-04-26T03:57:59.148Z,1007.71
2019-04-26T03:58:59.591Z,1007.71
2019-04-26T03:59:59.275Z,1007.68
2019-04-26T04:00:59.340Z,1007.69
2019-04-26T04:01:59.397Z,1007.74
2019-04-26T04:02:59.468Z,1007.79
2019-04-26T04:03:59.525Z,1007.75
2019-04-26T04:04:59.968Z,1007.79
2019-04-26T04:05:59.650Z,1007.74
2019-04-26T04:07:04.663Z,1007.68
2019-04-26T04:07:59.773Z,1007.69
2019-04-26T04:08:59.836Z,1007.70
2019-04-26T04:09:59.901Z,1007.71
2019-04-26T04:11:00.144Z,1007.72
2019-04-26T04:12:11.210Z,1007.73
2019-04-26T04:13:00.092Z,1007.72
2019-04-26T04:14:00.218Z,1007.72
2019-04-26T04:15:00.214Z,1007.75
2019-04-26T04:16:00.285Z,1007.76
2019-04-26T04:17:00.346Z,1007.75
2019-04-26T04:18:00.403Z,1007.70
2019-04-26T04:19:00.464Z,1007.72
2019-04-26T04:20:00.530Z,1007.71
2019-04-26T04:21:00.599Z,1007.76
2019-04-26T04:22:00.662Z,1007.79
2019-04-26T04:23:00.718Z,1007.79
2019-04-26T04:24:00.778Z,1007.80
2019-04-26T04:25:00.842Z,1007.75
2019-04-26T04:26:00.922Z,1007.76
2019-04-26T04:27:01.028Z,1007.78
2019-04-26T04:28:03.333Z,1007.77
2019-04-26T04:29:01.096Z,1007.78
2019-04-26T04:30:01.165Z,1007.78
2019-04-26T04:31:01.308Z,1007.75
2019-04-26T04:32:01.288Z,1007.73
2019-04-26T04:33:01.345Z,1007.76
2019-04-26T04:34:01.411Z,1007.72
2019-04-26T04:35:01.471Z,1007.76
2019-04-26T04:36:01.545Z,1007.80
2019-04-26T04:37:01.601Z,1007.87
2019-04-26T04:38:08.766Z,1007.86
2019-04-26T04:39:10.945Z,1007.89
2019-04-26T04:40:01.810Z,1007.87
2019-04-26T04:41:01.854Z,1007.87
2019-04-26T04:42:01.915Z,1007.90
2019-04-26T04:43:02.065Z,1007.90
2019-04-26T04:44:02.151Z,1007.98
2019-04-26T04:45:02.106Z,1008.00
2019-04-26T04:46:02.321Z,1007.99
2019-04-26T04:47:02.230Z,1007.97
2019-04-26T04:48:02.291Z,1007.92
2019-04-26T04:49:02.347Z,1007.93
2019-04-26T04:50:02.417Z,1007.93
2019-04-26T04:51:02.491Z,1007.99
2019-04-26T04:52:02.547Z,1008.02
2019-04-26T04:53:02.598Z,1008.05
2019-04-26T04:54:02.663Z,1008.08
2019-04-26T04:55:07.531Z,1008.06
2019-04-26T04:56:02.805Z,1008.01
2019-04-26T04:57:02.866Z,1007.99
2019-04-26T04:58:02.922Z,1007.92
2019-04-26T04:59:02.983Z,1007.87
2019-04-26T05:00:03.040Z,1007.86
2019-04-26T05:01:03.108Z,1007.73
2019-04-26T05:02:03.263Z,1007.80
2019-04-26T05:03:03.231Z,1007.82
2019-04-26T05:04:03.295Z,1007.86
2019-04-26T05:05:03.356Z,1007.92
2019-04-26T05:06:07.609Z,1007.99
2019-04-26T05:07:03.498Z,1008.00
2019-04-26T05:08:06.804Z,1008.04
2019-04-26T05:09:03.605Z,1008.06
2019-04-26T05:10:03.672Z,1008.14
2019-04-26T05:11:03.734Z,1008.15
2019-04-26T05:12:03.803Z,1008.14
2019-04-26T05:13:03.868Z,1008.18
2019-04-26T05:14:03.924Z,1008.21
2019-04-26T05:15:03.989Z,1008.23
2019-04-26T05:16:04.051Z,1008.25
2019-04-26T05:17:04.157Z,1008.24
2019-04-26T05:18:04.174Z,1008.25
2019-04-26T05:19:04.236Z,1008.28
2019-04-26T05:20:04.296Z,1008.28
2019-04-26T05:21:04.363Z,1008.22
2019-04-26T05:22:04.431Z,1008.21
2019-04-26T05:23:04.498Z,1008.18
2019-04-26T05:24:04.552Z,1008.23
2019-04-26T05:25:04.612Z,1008.29
2019-04-26T05:26:04.672Z,1008.35
2019-04-26T05:27:04.745Z,1008.39
2019-04-26T05:28:04.807Z,1008.41
2019-04-26T05:29:04.863Z,1008.45
2019-04-26T05:30:04.930Z,1008.45
2019-04-26T05:31:04.991Z,1008.45
2019-04-26T05:32:05.060Z,1008.46
2019-04-26T05:33:05.121Z,1008.43
2019-04-26T05:34:05.177Z,1008.43
2019-04-26T05:35:05.244Z,1008.44
2019-04-26T05:36:05.305Z,1008.46
2019-04-26T05:37:05.377Z,1008.47
2019-04-26T05:38:17.760Z,1008.48
2019-04-26T05:39:05.496Z,1008.50
2019-04-26T05:40:05.559Z,1008.47
2019-04-26T05:41:05.617Z,1008.45
2019-04-26T05:42:05.690Z,1008.44
2019-04-26T05:43:05.757Z,1008.41
2019-04-26T05:44:05.808Z,1008.41
2019-04-26T05:45:05.871Z,1008.42
2019-04-26T05:46:05.934Z,1008.45
2019-04-26T05:47:06.000Z,1008.49
2019-04-26T05:48:11.643Z,1008.51
2019-04-26T05:49:06.122Z,1008.49
2019-04-26T05:50:06.184Z,1008.46
2019-04-26T05:51:06.246Z,1008.49
2019-04-26T05:52:06.398Z,1008.43
2019-04-26T05:53:06.376Z,1008.48
2019-04-26T05:54:06.433Z,1008.46
2019-04-26T05:55:06.500Z,1008.46
2019-04-26T05:56:06.562Z,1008.40
2019-04-26T05:57:06.630Z,1008.39
2019-04-26T05:58:06.698Z,1008.44
2019-04-26T05:59:06.751Z,1008.43
2019-04-26T06:00:06.813Z,1008.49
2019-04-26T06:01:06.881Z,1008.49
2019-04-26T06:02:07.930Z,1008.48
2019-04-26T06:03:07.010Z,1008.54
2019-04-26T06:04:07.069Z,1008.53
2019-04-26T06:05:07.133Z,1008.54
2019-04-26T06:06:07.190Z,1008.52
2019-04-26T06:07:07.355Z,1008.50
2019-04-26T06:08:07.324Z,1008.53
2019-04-26T06:09:07.383Z,1008.50
2019-04-26T06:10:07.446Z,1008.57
2019-04-26T06:11:07.513Z,1008.56
2019-04-26T06:12:07.577Z,1008.55
2019-04-26T06:13:07.643Z,1008.60
2019-04-26T06:14:07.700Z,1008.65
2019-04-26T06:15:07.758Z,1008.67
2019-04-26T06:16:07.822Z,1008.64
2019-04-26T06:17:07.894Z,1008.66
2019-04-26T06:18:07.959Z,1008.62
2019-04-26T06:19:08.014Z,1008.62
2019-04-26T06:20:08.095Z,1008.61
2019-04-26T06:21:08.140Z,1008.58
2019-04-26T06:22:08.238Z,1008.63
2019-04-26T06:23:08.269Z,1008.66
2019-04-26T06:24:08.327Z,1008.64
2019-04-26T06:25:08.395Z,1008.65
2019-04-26T06:26:08.456Z,1008.68
2019-04-26T06:27:13.955Z,1008.71
2019-04-26T06:28:08.588Z,1008.70
2019-04-26T06:29:08.644Z,1008.69
2019-04-26T06:30:08.707Z,1008.70
2019-04-26T06:31:08.771Z,1008.69
2019-04-26T06:32:08.839Z,1008.75
2019-04-26T06:33:08.907Z,1008.75
2019-04-26T06:34:08.962Z,1008.75
2019-04-26T06:35:09.025Z,1008.80
2019-04-26T06:36:09.119Z,1008.82
2019-04-26T06:37:09.525Z,1008.92
2019-04-26T06:38:09.212Z,1009.02
2019-04-26T06:39:09.290Z,1009.11
2019-04-26T06:40:09.346Z,1009.22
2019-04-26T06:41:09.404Z,1009.25
2019-04-26T06:42:09.470Z,1009.28
2019-04-26T06:43:09.540Z,1009.28
2019-04-26T06:44:09.597Z,1009.28
2019-04-26T06:45:09.657Z,1009.27
2019-04-26T06:46:09.721Z,1009.29
2019-04-26T06:47:09.780Z,1009.27
2019-04-26T06:48:09.855Z,1009.30
2019-04-26T06:49:09.915Z,1009.26
2019-04-26T06:50:10.140Z,1009.25
2019-04-26T06:51:22.435Z,1009.21
2019-04-26T06:52:10.101Z,1009.31
2019-04-26T06:53:11.145Z,1009.29
2019-04-26T06:54:10.225Z,1009.29
2019-04-26T06:55:10.289Z,1009.28
2019-04-26T06:56:10.349Z,1009.25
2019-04-26T06:57:14.868Z,1009.18
2019-04-26T06:58:10.505Z,1009.19
2019-04-26T06:59:10.549Z,1009.21
2019-04-26T07:00:10.605Z,1009.26
2019-04-26T07:01:10.663Z,1009.25
2019-04-26T07:02:10.728Z,1009.35
2019-04-26T07:03:10.799Z,1009.36
2019-04-26T07:04:10.865Z,1009.38
2019-04-26T07:05:11.951Z,1009.41
2019-04-26T07:06:12.042Z,1009.36
2019-04-26T07:07:11.047Z,1009.31
2019-04-26T07:08:11.204Z,1009.30
2019-04-26T07:09:11.701Z,1009.29
2019-04-26T07:10:11.232Z,1009.31
2019-04-26T07:11:11.740Z,1009.31
2019-04-26T07:12:11.677Z,1009.31
2019-04-26T07:13:14.501Z,1009.30
2019-04-26T07:14:11.588Z,1009.29
2019-04-26T07:15:12.130Z,1009.30
2019-04-26T07:16:22.525Z,1009.30
2019-04-26T07:17:12.224Z,1009.26
2019-04-26T07:18:12.770Z,1009.29
2019-04-26T07:19:11.812Z,1009.28
2019-04-26T07:20:11.868Z,1009.25
2019-04-26T07:21:11.929Z,1009.21
2019-04-26T07:22:11.989Z,1009.20
2019-04-26T07:23:12.688Z,1009.22
2019-04-26T07:24:13.337Z,1009.20
2019-04-26T07:25:12.178Z,1009.19
2019-04-26T07:26:12.245Z,1009.23
2019-04-26T07:27:13.106Z,1009.25
2019-04-26T07:28:12.571Z,1009.28
2019-04-26T07:29:12.439Z,1009.30
2019-04-26T07:30:12.579Z,1009.33
2019-04-26T07:31:13.103Z,1009.35
2019-04-26T07:32:12.625Z,1009.35
2019-04-26T07:33:12.724Z,1009.40
2019-04-26T07:34:12.754Z,1009.43
2019-04-26T07:35:13.038Z,1009.45
2019-04-26T07:36:12.875Z,1009.44
2019-04-26T07:37:12.940Z,1009.50
2019-04-26T07:38:12.999Z,1009.60
2019-04-26T07:39:19.449Z,1009.60
2019-04-26T07:40:13.143Z,1009.63
2019-04-26T07:41:13.191Z,1009.68
2019-04-26T07:42:13.251Z,1009.72
2019-04-26T07:43:13.328Z,1009.71
2019-04-26T07:44:13.398Z,1009.75
2019-04-26T07:45:13.447Z,1009.74
2019-04-26T07:46:13.509Z,1009.77
2019-04-26T07:47:14.378Z,1009.78
2019-04-26T07:48:14.601Z,1009.78
2019-04-26T07:49:13.699Z,1009.81
2019-04-26T07:50:14.198Z,1009.86
2019-04-26T07:51:13.818Z,1009.84
2019-04-26T07:52:13.884Z,1009.84
2019-04-26T07:53:13.943Z,1009.83
2019-04-26T07:54:14.014Z,1009.85
2019-04-26T07:55:14.076Z,1009.83
2019-04-26T07:56:14.134Z,1009.86
2019-04-26T07:57:14.195Z,1009.86
2019-04-26T07:58:14.256Z,1009.85
2019-04-26T07:59:14.845Z,1009.88
2019-04-26T08:00:15.379Z,1009.91
2019-04-26T08:01:14.448Z,1009.89
2019-04-26T08:02:14.512Z,1009.86
2019-04-26T08:03:15.113Z,1009.82
2019-04-26T08:04:14.647Z,1009.88
2019-04-26T08:05:14.709Z,1009.82
2019-04-26T08:06:14.763Z,1009.81
2019-04-26T08:07:15.338Z,1009.81
2019-04-26T08:08:15.065Z,1009.85
2019-04-26T08:09:26.623Z,1009.86
2019-04-26T08:10:15.020Z,1009.86
2019-04-26T08:11:15.097Z,1009.89
2019-04-26T08:12:15.145Z,1009.85
2019-04-26T08:13:15.306Z,1009.92
2019-04-26T08:14:15.375Z,1009.93
2019-04-26T08:15:15.673Z,1009.95
2019-04-26T08:16:15.397Z,1009.97
2019-04-26T08:17:15.459Z,1009.99
2019-04-26T08:18:15.521Z,1010.05
2019-04-26T08:19:15.596Z,1010.05
2019-04-26T08:20:15.658Z,1010.11
2019-04-26T08:21:18.174Z,1010.14
2019-04-26T08:22:21.850Z,1010.16
2019-04-26T08:23:37.214Z,1010.15
2019-04-26T08:24:16.726Z,1010.16
2019-04-26T08:25:17.597Z,1010.14
2019-04-26T08:26:16.032Z,1010.19
2019-04-26T08:27:22.574Z,1010.16
2019-04-26T08:28:16.506Z,1010.15
2019-04-26T08:29:16.854Z,1010.15
2019-04-26T08:30:19.112Z,1010.18
2019-04-26T08:31:21.209Z,1010.19
2019-04-26T08:32:16.412Z,1010.17
2019-04-26T08:33:16.476Z,1010.16
2019-04-26T08:34:16.739Z,1010.10
2019-04-26T08:35:21.358Z,1010.06
2019-04-26T08:36:17.656Z,1010.08
2019-04-26T08:37:19.019Z,1010.06
2019-04-26T08:38:22.338Z,1010.08
2019-04-26T08:39:18.028Z,1010.16
2019-04-26T08:40:25.595Z,1010.19
2019-04-26T08:41:16.988Z,1010.19
2019-04-26T08:42:20.016Z,1010.25
2019-04-26T08:43:18.135Z,1010.27
2019-04-26T08:44:17.288Z,1010.27
2019-04-26T08:45:17.246Z,1010.32
2019-04-26T08:46:17.311Z,1010.35
2019-04-26T08:47:24.015Z,1010.38
2019-04-26T08:48:17.436Z,1010.34
2019-04-26T08:49:17.624Z,1010.34
2019-04-26T08:50:17.735Z,1010.33
2019-04-26T08:51:20.703Z,1010.40
2019-04-26T08:52:17.690Z,1010.36
2019-04-26T08:53:17.757Z,1010.37
2019-04-26T08:54:17.827Z,1010.37
2019-04-26T08:55:17.890Z,1010.36
2019-04-26T08:56:20.358Z,1010.41
2019-04-26T08:57:18.013Z,1010.41
2019-04-26T08:58:18.077Z,1010.42
2019-04-26T08:59:18.151Z,1010.38
2019-04-26T09:00:18.203Z,1010.34
2019-04-26T09:01:18.266Z,1010.36
2019-04-26T09:02:18.329Z,1010.35
2019-04-26T09:03:18.400Z,1010.36
2019-04-26T09:04:18.467Z,1010.36
2019-04-26T09:05:18.534Z,1010.32
2019-04-26T09:06:18.587Z,1010.32
2019-04-26T09:07:18.651Z,1010.29
2019-04-26T09:08:18.716Z,1010.35
2019-04-26T09:09:19.802Z,1010.33
2019-04-26T09:10:18.848Z,1010.33
2019-04-26T09:11:26.135Z,1010.35
2019-04-26T09:12:23.320Z,1010.36
2019-04-26T09:13:19.034Z,1010.44
2019-04-26T09:14:19.204Z,1010.45
2019-04-26T09:15:19.163Z,1010.45
2019-04-26T09:16:19.320Z,1010.43
2019-04-26T09:17:19.287Z,1010.45
2019-04-26T09:18:19.352Z,1010.43
2019-04-26T09:19:19.424Z,1010.40
2019-04-26T09:20:28.717Z,1010.41
2019-04-26T09:21:19.543Z,1010.41
2019-04-26T09:22:22.475Z,1010.40
2019-04-26T09:23:19.675Z,1010.40
2019-04-26T09:24:21.063Z,1010.41
2019-04-26T09:25:22.528Z,1010.40
2019-04-26T09:26:19.885Z,1010.39
2019-04-26T09:27:21.145Z,1010.38
2019-04-26T09:28:19.992Z,1010.35
2019-04-26T09:29:20.060Z,1010.33
2019-04-26T09:30:33.123Z,1010.30
2019-04-26T09:31:21.153Z,1010.33
2019-04-26T09:32:20.248Z,1010.36
2019-04-26T09:33:20.414Z,1010.41
2019-04-26T09:34:20.383Z,1010.40
2019-04-26T09:35:20.445Z,1010.43
2019-04-26T09:36:20.501Z,1010.47
2019-04-26T09:37:20.572Z,1010.47
2019-04-26T09:38:20.628Z,1010.44
2019-04-26T09:39:20.702Z,1010.36
2019-04-26T09:40:22.715Z,1010.41
2019-04-26T09:41:20.820Z,1010.45
2019-04-26T09:42:20.890Z,1010.43
2019-04-26T09:43:20.949Z,1010.47
2019-04-26T09:44:21.017Z,1010.48
2019-04-26T09:45:21.081Z,1010.56
2019-04-26T09:46:21.136Z,1010.62
2019-04-26T09:47:21.202Z,1010.66
2019-04-26T09:48:21.270Z,1010.67
2019-04-26T09:49:21.417Z,1010.65
2019-04-26T09:50:21.394Z,1010.75
2019-04-26T09:51:21.458Z,1010.72
2019-04-26T09:52:21.526Z,1010.70
2019-04-26T09:53:21.585Z,1010.68
2019-04-26T09:54:21.658Z,1010.69
2019-04-26T09:55:21.725Z,1010.67
2019-04-26T09:56:21.776Z,1010.66
2019-04-26T09:57:21.844Z,1010.73
2019-04-26T09:58:21.905Z,1010.71
2019-04-26T09:59:21.982Z,1010.74
2019-04-26T10:00:22.042Z,1010.72
2019-04-26T10:01:24.062Z,1010.74
2019-04-26T10:02:22.162Z,1010.71
2019-04-26T10:03:22.225Z,1010.74
2019-04-26T10:04:22.442Z,1010.78
2019-04-26T10:05:23.827Z,1010.77
2019-04-26T10:06:22.418Z,1010.76
2019-04-26T10:07:22.483Z,1010.81
2019-04-26T10:08:22.546Z,1010.81
2019-04-26T10:09:22.831Z,1010.78
2019-04-26T10:10:23.335Z,1010.76
2019-04-26T10:11:22.737Z,1010.76
2019-04-26T10:12:22.807Z,1010.78
2019-04-26T10:13:22.870Z,1010.76
2019-04-26T10:14:22.945Z,1010.77
2019-04-26T10:15:26.776Z,1010.77
2019-04-26T10:16:23.063Z,1010.73
2019-04-26T10:17:23.127Z,1010.75
2019-04-26T10:18:24.376Z,1010.75
2019-04-26T10:19:23.274Z,1010.81
2019-04-26T10:20:23.318Z,1010.83
2019-04-26T10:21:23.383Z,1010.85
2019-04-26T10:22:23.452Z,1010.87
2019-04-26T10:23:23.515Z,1010.86
2019-04-26T10:24:23.586Z,1010.80
2019-04-26T10:25:23.651Z,1010.81
2019-04-26T10:26:28.167Z,1010.79
2019-04-26T10:27:23.774Z,1010.77
2019-04-26T10:28:23.839Z,1010.79
2019-04-26T10:29:25.663Z,1010.83
2019-04-26T10:30:23.970Z,1010.78
2019-04-26T10:31:24.031Z,1010.82
2019-04-26T10:32:26.250Z,1010.85
2019-04-26T10:33:24.158Z,1010.89
2019-04-26T10:34:24.222Z,1010.91
2019-04-26T10:35:24.303Z,1010.91
2019-04-26T10:36:26.304Z,1010.91
2019-04-26T10:37:24.419Z,1010.85
2019-04-26T10:38:25.499Z,1010.87
2019-04-26T10:39:24.562Z,1010.84
2019-04-26T10:40:35.001Z,1010.84
2019-04-26T10:41:24.684Z,1010.83
2019-04-26T10:42:24.739Z,1010.78
2019-04-26T10:43:24.813Z,1010.80
2019-04-26T10:44:24.870Z,1010.86
2019-04-26T10:45:24.943Z,1010.84
2019-04-26T10:46:28.324Z,1010.85
2019-04-26T10:47:25.068Z,1010.83
2019-04-26T10:48:25.132Z,1010.81
2019-04-26T10:49:26.060Z,1010.82
2019-04-26T10:50:28.725Z,1010.80
2019-04-26T10:51:25.419Z,1010.83
2019-04-26T10:52:25.388Z,1010.83
2019-04-26T10:53:29.611Z,1010.80
2019-04-26T10:54:25.519Z,1010.80
2019-04-26T10:55:25.584Z,1010.81
2019-04-26T10:56:25.656Z,1010.82
2019-04-26T10:57:25.723Z,1010.76
2019-04-26T10:58:25.776Z,1010.76
2019-04-26T10:59:25.841Z,1010.73
2019-04-26T11:00:25.907Z,1010.81
2019-04-26T11:01:25.977Z,1010.78
2019-04-26T11:02:26.045Z,1010.78
2019-04-26T11:03:26.103Z,1010.81
2019-04-26T11:04:26.168Z,1010.85
2019-04-26T11:05:26.237Z,1010.85
2019-04-26T11:06:27.884Z,1010.92
2019-04-26T11:07:26.385Z,1010.94
2019-04-26T11:08:26.428Z,1011.01
2019-04-26T11:09:26.497Z,1011.02
2019-04-26T11:10:26.557Z,1011.00
2019-04-26T11:11:26.625Z,1011.04
2019-04-26T11:12:26.697Z,1011.00
2019-04-26T11:13:26.765Z,1010.96
2019-04-26T11:14:26.821Z,1010.98
2019-04-26T11:15:29.124Z,1010.89
2019-04-26T11:16:26.954Z,1010.90
2019-04-26T11:17:27.023Z,1010.83
2019-04-26T11:18:28.551Z,1010.80
2019-04-26T11:19:27.149Z,1010.77
2019-04-26T11:20:27.217Z,1010.76
2019-04-26T11:21:27.281Z,1010.76
2019-04-26T11:22:29.391Z,1010.73
2019-04-26T11:23:27.425Z,1010.70
2019-04-26T11:24:27.497Z,1010.62
2019-04-26T11:25:28.275Z,1010.67
2019-04-26T11:26:31.099Z,1010.62
2019-04-26T11:27:27.680Z,1010.56
2019-04-26T11:28:27.750Z,1010.57
2019-04-26T11:29:28.745Z,1010.62
2019-04-26T11:30:27.890Z,1010.63
2019-04-26T11:31:29.258Z,1010.68
2019-04-26T11:32:28.010Z,1010.69
2019-04-26T11:33:28.078Z,1010.69
2019-04-26T11:34:28.258Z,1010.67
2019-04-26T11:35:29.312Z,1010.66
2019-04-26T11:36:28.274Z,1010.66
2019-04-26T11:37:28.337Z,1010.63
2019-04-26T11:38:31.233Z,1010.65
2019-04-26T11:39:28.501Z,1010.63
2019-04-26T11:40:28.551Z,1010.68
2019-04-26T11:41:28.606Z,1010.71
2019-04-26T11:42:28.669Z,1010.72
2019-04-26T11:43:28.734Z,1010.78
2019-04-26T11:44:28.818Z,1010.78
2019-04-26T11:45:28.898Z,1010.83
2019-04-26T11:46:30.051Z,1010.83
2019-04-26T11:47:28.999Z,1010.85
2019-04-26T11:48:30.556Z,1010.84
2019-04-26T11:49:29.150Z,1010.80
2019-04-26T11:50:29.199Z,1010.82
2019-04-26T11:51:29.267Z,1010.75
2019-04-26T11:52:32.124Z,1010.74
2019-04-26T11:53:29.398Z,1010.76
2019-04-26T11:54:29.470Z,1010.77
2019-04-26T11:55:30.248Z,1010.83
2019-04-26T11:56:29.595Z,1010.80
2019-04-26T11:57:29.662Z,1010.81
2019-04-26T11:58:29.727Z,1010.80
2019-04-26T11:59:30.662Z,1010.83
2019-04-26T12:00:29.868Z,1010.78
2019-04-26T12:01:29.931Z,1010.81
2019-04-26T12:02:29.992Z,1010.82
2019-04-26T12:03:30.064Z,1010.83
2019-04-26T12:04:30.319Z,1010.86
2019-04-26T12:05:30.192Z,1010.81
2019-04-26T12:06:30.260Z,1010.84